sensor_id;sensor_type;location;lat;lon;timestamp;P1;durP1;ratioP1;P2;durP2;ratioP2
28296;SDS011;62078;49.366;8.172;2022-10-26T07:36:15;28.92;;;21.23;;
28296;SDS011;62078;49.366;8.172;2022-10-26T07:38:41;12.88;;;8.70;;
28296;SDS011;62078;49.366;8.172;2022-10-26T07:41:07;10.55;;;4.20;;
28296;SDS011;62078;49.366;8.172;2022-10-26T07:43:32;11.88;;;5.07;;
28296;SDS011;62078;49.366;8.172;2022-10-26T07:45:58;11.35;;;5.50;;
28296;SDS011;62078;49.366;8.172;2022-10-26T07:48:24;13.60;;;7.85;;
28296;SDS011;62078;49.366;8.172;2022-10-26T07:50:49;12.68;;;7.03;;
28296;SDS011;62078;49.366;8.172;2022-10-26T07:53:15;16.25;;;4.93;;
28296;SDS011;62078;49.366;8.172;2022-10-26T07:55:41;10.40;;;3.78;;
28296;SDS011;62078;49.366;8.172;2022-10-26T07:58:06;8.82;;;3.45;;
28296;SDS011;62078;49.366;8.172;2022-10-26T08:00:32;7.72;;;3.00;;
28296;SDS011;62078;49.366;8.172;2022-10-26T08:02:58;8.77;;;3.28;;
28296;SDS011;62078;49.366;8.172;2022-10-26T08:05:23;10.25;;;3.03;;
28296;SDS011;62078;49.366;8.172;2022-10-26T08:07:49;7.90;;;2.88;;
28296;SDS011;62078;49.366;8.172;2022-10-26T08:10:15;7.88;;;3.17;;
28296;SDS011;62078;49.366;8.172;2022-10-26T08:12:41;8.25;;;3.08;;
28296;SDS011;62078;49.366;8.172;2022-10-26T08:15:08;9.82;;;3.08;;
28296;SDS011;62078;49.366;8.172;2022-10-26T08:17:34;6.88;;;3.08;;
28296;SDS011;62078;49.366;8.172;2022-10-26T08:20:00;6.80;;;2.83;;
28296;SDS011;62078;49.366;8.172;2022-10-26T08:22:29;10.05;;;2.70;;
28296;SDS011;62078;49.366;8.172;2022-10-26T08:24:54;9.55;;;2.90;;
28296;SDS011;62078;49.366;8.172;2022-10-26T08:27:20;10.60;;;3.15;;
28296;SDS011;62078;49.366;8.172;2022-10-26T08:29:46;7.32;;;3.60;;
28296;SDS011;62078;49.366;8.172;2022-10-26T08:32:11;9.77;;;3.47;;
28296;SDS011;62078;49.366;8.172;2022-10-26T08:34:37;9.02;;;3.13;;
28296;SDS011;62078;49.366;8.172;2022-10-26T08:37:03;7.90;;;2.72;;
28296;SDS011;62078;49.366;8.172;2022-10-26T08:39:28;12.05;;;3.22;;
28296;SDS011;62078;49.366;8.172;2022-10-26T08:42:16;7.45;;;2.83;;
28296;SDS011;62078;49.366;8.172;2022-10-26T08:44:49;7.82;;;2.78;;
28296;SDS011;62078;49.366;8.172;2022-10-26T08:47:24;6.50;;;2.63;;
28296;SDS011;62078;49.366;8.172;2022-10-26T08:52:28;5.15;;;2.35;;
28296;SDS011;62078;49.366;8.172;2022-10-26T08:55:26;8.38;;;2.40;;
28296;SDS011;62078;49.366;8.172;2022-10-26T08:57:57;7.32;;;2.38;;
28296;SDS011;62078;49.366;8.172;2022-10-26T09:00:26;8.50;;;2.80;;
28296;SDS011;62078;49.366;8.172;2022-10-26T09:02:54;12.23;;;2.38;;
28296;SDS011;62078;49.366;8.172;2022-10-26T09:05:21;8.05;;;2.33;;
28296;SDS011;62078;49.366;8.172;2022-10-26T09:10:57;8.90;;;2.45;;
28296;SDS011;62078;49.366;8.172;2022-10-26T09:13:41;9.77;;;3.10;;
28296;SDS011;62078;49.366;8.172;2022-10-26T09:24:52;12.82;;;2.50;;
28296;SDS011;62078;49.366;8.172;2022-10-26T09:27:27;10.43;;;2.38;;
28296;SDS011;62078;49.366;8.172;2022-10-26T09:29:55;9.35;;;2.65;;
28296;SDS011;62078;49.366;8.172;2022-10-26T09:32:32;7.60;;;2.58;;
28296;SDS011;62078;49.366;8.172;2022-10-26T09:35:03;5.35;;;2.20;;
28296;SDS011;62078;49.366;8.172;2022-10-26T09:37:38;9.65;;;2.25;;
28296;SDS011;62078;49.366;8.172;2022-10-26T09:43:23;8.80;;;2.58;;
28296;SDS011;62078;49.366;8.172;2022-10-26T09:45:55;10.70;;;2.40;;
28296;SDS011;62078;49.366;8.172;2022-10-26T09:48:25;5.00;;;2.03;;
28296;SDS011;62078;49.366;8.172;2022-10-26T09:50:55;7.30;;;2.63;;
28296;SDS011;62078;49.366;8.172;2022-10-26T09:53:23;5.57;;;2.10;;
28296;SDS011;62078;49.366;8.172;2022-10-26T09:55:49;7.40;;;2.53;;
28296;SDS011;62078;49.366;8.172;2022-10-26T09:58:35;5.13;;;2.40;;
28296;SDS011;62078;49.366;8.172;2022-10-26T10:01:06;10.77;;;2.80;;
28296;SDS011;62078;49.366;8.172;2022-10-26T10:03:45;6.10;;;2.15;;
28296;SDS011;62078;49.366;8.172;2022-10-26T10:06:15;6.97;;;2.58;;
28296;SDS011;62078;49.366;8.172;2022-10-26T10:08:43;5.90;;;2.28;;
28296;SDS011;62078;49.366;8.172;2022-10-26T10:11:13;6.40;;;2.13;;
28296;SDS011;62078;49.366;8.172;2022-10-26T10:13:40;7.32;;;2.28;;
28296;SDS011;62078;49.366;8.172;2022-10-26T10:18:40;7.78;;;2.50;;
28296;SDS011;62078;49.366;8.172;2022-10-26T10:21:06;10.43;;;2.53;;
28296;SDS011;62078;49.366;8.172;2022-10-26T10:23:35;7.78;;;2.33;;
28296;SDS011;62078;49.366;8.172;2022-10-26T10:26:11;5.35;;;2.25;;
28296;SDS011;62078;49.366;8.172;2022-10-26T10:28:37;6.55;;;2.50;;
28296;SDS011;62078;49.366;8.172;2022-10-26T10:31:09;5.40;;;2.20;;
28296;SDS011;62078;49.366;8.172;2022-10-26T10:33:46;6.30;;;2.25;;
28296;SDS011;62078;49.366;8.172;2022-10-26T10:36:20;6.30;;;2.45;;
28296;SDS011;62078;49.366;8.172;2022-10-26T10:38:47;7.25;;;2.28;;
28296;SDS011;62078;49.366;8.172;2022-10-26T10:41:25;7.03;;;2.28;;
28296;SDS011;62078;49.366;8.172;2022-10-26T10:44:01;6.78;;;2.10;;
28296;SDS011;62078;49.366;8.172;2022-10-26T10:46:32;6.20;;;2.05;;
28296;SDS011;62078;49.366;8.172;2022-10-26T10:49:00;4.80;;;1.85;;
28296;SDS011;62078;49.366;8.172;2022-10-26T10:51:29;5.95;;;2.10;;
28296;SDS011;62078;49.366;8.172;2022-10-26T10:54:00;5.63;;;2.22;;
28296;SDS011;62078;49.366;8.172;2022-10-26T10:56:32;5.03;;;1.95;;
28296;SDS011;62078;49.366;8.172;2022-10-26T11:02:11;6.50;;;2.53;;
28296;SDS011;62078;49.366;8.172;2022-10-26T11:05:02;4.93;;;1.75;;
28296;SDS011;62078;49.366;8.172;2022-10-26T11:10:22;4.75;;;2.08;;
28296;SDS011;62078;49.366;8.172;2022-10-26T11:12:58;4.88;;;1.90;;
28296;SDS011;62078;49.366;8.172;2022-10-26T11:15:32;6.05;;;1.90;;
28296;SDS011;62078;49.366;8.172;2022-10-26T11:20:31;6.82;;;2.13;;
28296;SDS011;62078;49.366;8.172;2022-10-26T11:23:03;7.43;;;2.08;;
28296;SDS011;62078;49.366;8.172;2022-10-26T11:28:15;6.75;;;2.00;;
28296;SDS011;62078;49.366;8.172;2022-10-26T11:31:00;4.82;;;2.22;;
28296;SDS011;62078;49.366;8.172;2022-10-26T11:33:33;5.15;;;1.92;;
28296;SDS011;62078;49.366;8.172;2022-10-26T11:36:06;6.35;;;1.90;;
28296;SDS011;62078;49.366;8.172;2022-10-26T11:43:56;6.30;;;1.80;;
28296;SDS011;62078;49.366;8.172;2022-10-26T11:54:52;5.05;;;1.90;;
28296;SDS011;62078;49.366;8.172;2022-10-26T11:57:26;5.45;;;1.67;;
28296;SDS011;62078;49.366;8.172;2022-10-26T11:59:56;6.22;;;1.73;;
28296;SDS011;62078;49.366;8.172;2022-10-26T12:02:31;5.50;;;2.03;;
28296;SDS011;62078;49.366;8.172;2022-10-26T12:07:39;6.82;;;1.85;;
28296;SDS011;62078;49.366;8.172;2022-10-26T12:10:20;7.78;;;2.22;;
28296;SDS011;62078;49.366;8.172;2022-10-26T12:15:40;8.75;;;3.50;;
28296;SDS011;62078;49.366;8.172;2022-10-26T12:23:32;27.52;;;11.02;;
28296;SDS011;62078;49.366;8.172;2022-10-26T12:29:24;37.53;;;18.17;;
28296;SDS011;62078;49.366;8.172;2022-10-26T12:31:56;41.42;;;18.88;;
28296;SDS011;62078;49.366;8.172;2022-10-26T12:34:24;48.67;;;23.50;;
28296;SDS011;62078;49.366;8.172;2022-10-26T12:37:23;47.70;;;23.48;;
28296;SDS011;62078;49.366;8.172;2022-10-26T12:45:43;50.42;;;23.73;;
28296;SDS011;62078;49.366;8.172;2022-10-26T12:50:46;46.38;;;23.20;;
28296;SDS011;62078;49.366;8.172;2022-10-26T12:53:12;49.75;;;23.67;;
28296;SDS011;62078;49.366;8.172;2022-10-26T13:00:40;43.30;;;21.40;;
28296;SDS011;62078;49.366;8.172;2022-10-26T13:08:55;41.10;;;20.92;;
28296;SDS011;62078;49.366;8.172;2022-10-26T13:11:32;39.47;;;20.83;;
28296;SDS011;62078;49.366;8.172;2022-10-26T13:14:03;40.83;;;19.85;;
28296;SDS011;62078;49.366;8.172;2022-10-26T13:16:31;28.80;;;14.52;;
28296;SDS011;62078;49.366;8.172;2022-10-26T13:18:58;37.92;;;18.70;;
28296;SDS011;62078;49.366;8.172;2022-10-26T13:21:24;33.90;;;17.80;;
28296;SDS011;62078;49.366;8.172;2022-10-26T13:26:30;31.75;;;16.52;;
28296;SDS011;62078;49.366;8.172;2022-10-26T13:29:10;30.83;;;15.73;;
28296;SDS011;62078;49.366;8.172;2022-10-26T13:34:28;27.23;;;14.55;;
28296;SDS011;62078;49.366;8.172;2022-10-26T13:39:34;28.35;;;14.60;;
28296;SDS011;62078;49.366;8.172;2022-10-26T13:42:02;31.02;;;14.93;;
28296;SDS011;62078;49.366;8.172;2022-10-26T13:44:51;28.45;;;13.88;;
28296;SDS011;62078;49.366;8.172;2022-10-26T13:47:25;29.05;;;13.82;;
28296;SDS011;62078;49.366;8.172;2022-10-26T13:49:53;26.60;;;13.45;;
28296;SDS011;62078;49.366;8.172;2022-10-26T13:52:27;26.17;;;12.90;;
28296;SDS011;62078;49.366;8.172;2022-10-26T13:55:01;24.60;;;12.73;;
28296;SDS011;62078;49.366;8.172;2022-10-26T14:00:35;22.17;;;11.30;;
28296;SDS011;62078;49.366;8.172;2022-10-26T14:03:17;24.48;;;12.68;;
28296;SDS011;62078;49.366;8.172;2022-10-26T14:05:46;22.75;;;11.13;;
28296;SDS011;62078;49.366;8.172;2022-10-26T14:08:15;24.33;;;12.45;;
28296;SDS011;62078;49.366;8.172;2022-10-26T14:10:47;24.27;;;11.23;;
28296;SDS011;62078;49.366;8.172;2022-10-26T14:13:20;22.45;;;9.68;;
28296;SDS011;62078;49.366;8.172;2022-10-26T14:16:26;24.70;;;11.95;;
28296;SDS011;62078;49.366;8.172;2022-10-26T14:18:55;24.40;;;10.30;;
28296;SDS011;62078;49.366;8.172;2022-10-26T14:21:22;19.08;;;9.20;;
28296;SDS011;62078;49.366;8.172;2022-10-26T14:23:57;16.88;;;8.90;;
28296;SDS011;62078;49.366;8.172;2022-10-26T14:26:28;16.48;;;8.18;;
28296;SDS011;62078;49.366;8.172;2022-10-26T14:29:12;10.40;;;5.25;;
28296;SDS011;62078;49.366;8.172;2022-10-26T14:31:41;12.98;;;5.10;;
28296;SDS011;62078;49.366;8.172;2022-10-26T14:34:08;13.80;;;5.10;;
28296;SDS011;62078;49.366;8.172;2022-10-26T14:36:36;10.90;;;4.45;;
28296;SDS011;62078;49.366;8.172;2022-10-26T14:39:19;7.78;;;3.63;;
28296;SDS011;62078;49.366;8.172;2022-10-26T14:41:49;10.50;;;3.80;;
28296;SDS011;62078;49.366;8.172;2022-10-26T14:44:18;6.22;;;2.85;;
28296;SDS011;62078;49.366;8.172;2022-10-26T14:49:59;8.18;;;2.35;;
28296;SDS011;62078;49.366;8.172;2022-10-26T14:52:26;6.20;;;2.05;;
28296;SDS011;62078;49.366;8.172;2022-10-26T14:54:55;7.72;;;2.22;;
28296;SDS011;62078;49.366;8.172;2022-10-26T14:57:28;6.25;;;2.67;;
28296;SDS011;62078;49.366;8.172;2022-10-26T15:00:00;5.50;;;2.10;;
28296;SDS011;62078;49.366;8.172;2022-10-26T15:02:28;6.10;;;2.03;;
28296;SDS011;62078;49.366;8.172;2022-10-26T15:05:29;10.68;;;1.92;;
28296;SDS011;62078;49.366;8.172;2022-10-26T15:07:53;7.85;;;1.63;;
28296;SDS011;62078;49.366;8.172;2022-10-26T15:13:10;10.65;;;1.65;;
28296;SDS011;62078;49.366;8.172;2022-10-26T15:15:44;4.95;;;1.67;;
28296;SDS011;62078;49.366;8.172;2022-10-26T15:20:48;4.90;;;1.25;;
28296;SDS011;62078;49.366;8.172;2022-10-26T15:23:15;6.50;;;1.42;;
28296;SDS011;62078;49.366;8.172;2022-10-26T15:25:48;5.53;;;1.90;;
28296;SDS011;62078;49.366;8.172;2022-10-26T15:28:37;5.15;;;1.30;;
28296;SDS011;62078;49.366;8.172;2022-10-26T15:33:36;5.13;;;1.50;;
28296;SDS011;62078;49.366;8.172;2022-10-26T15:38:32;6.13;;;1.73;;
28296;SDS011;62078;49.366;8.172;2022-10-26T15:41:05;10.13;;;1.30;;
28296;SDS011;62078;49.366;8.172;2022-10-26T15:43:38;6.38;;;1.55;;
28296;SDS011;62078;49.366;8.172;2022-10-26T15:46:03;8.25;;;1.25;;
28296;SDS011;62078;49.366;8.172;2022-10-26T15:48:30;6.32;;;1.40;;
28296;SDS011;62078;49.366;8.172;2022-10-26T15:50:56;10.73;;;1.80;;
28296;SDS011;62078;49.366;8.172;2022-10-26T15:53:23;5.10;;;1.40;;
28296;SDS011;62078;49.366;8.172;2022-10-26T15:55:53;6.00;;;1.70;;
28296;SDS011;62078;49.366;8.172;2022-10-26T15:58:20;5.97;;;1.63;;
28296;SDS011;62078;49.366;8.172;2022-10-26T16:00:47;4.55;;;1.48;;
28296;SDS011;62078;49.366;8.172;2022-10-26T16:03:13;5.97;;;1.50;;
28296;SDS011;62078;49.366;8.172;2022-10-26T16:05:41;6.10;;;1.58;;
28296;SDS011;62078;49.366;8.172;2022-10-26T16:08:16;5.38;;;1.42;;
28296;SDS011;62078;49.366;8.172;2022-10-26T16:10:42;3.92;;;1.20;;
28296;SDS011;62078;49.366;8.172;2022-10-26T16:13:11;5.13;;;1.50;;
28296;SDS011;62078;49.366;8.172;2022-10-26T16:15:38;2.35;;;1.00;;
28296;SDS011;62078;49.366;8.172;2022-10-26T16:18:04;4.90;;;1.48;;
28296;SDS011;62078;49.366;8.172;2022-10-26T16:20:29;4.38;;;1.20;;
28296;SDS011;62078;49.366;8.172;2022-10-26T16:22:55;10.02;;;1.58;;
28296;SDS011;62078;49.366;8.172;2022-10-26T16:25:24;7.40;;;1.30;;
28296;SDS011;62078;49.366;8.172;2022-10-26T16:27:50;4.05;;;1.50;;
28296;SDS011;62078;49.366;8.172;2022-10-26T16:30:17;3.08;;;1.13;;
28296;SDS011;62078;49.366;8.172;2022-10-26T16:32:44;4.65;;;1.33;;
28296;SDS011;62078;49.366;8.172;2022-10-26T16:35:10;2.88;;;1.02;;
28296;SDS011;62078;49.366;8.172;2022-10-26T16:37:37;6.20;;;1.60;;
28296;SDS011;62078;49.366;8.172;2022-10-26T16:40:03;7.10;;;1.67;;
28296;SDS011;62078;49.366;8.172;2022-10-26T16:42:30;5.45;;;1.10;;
28296;SDS011;62078;49.366;8.172;2022-10-26T16:44:56;4.03;;;1.20;;
28296;SDS011;62078;49.366;8.172;2022-10-26T16:47:22;3.60;;;1.20;;
28296;SDS011;62078;49.366;8.172;2022-10-26T16:49:48;4.28;;;1.20;;
28296;SDS011;62078;49.366;8.172;2022-10-26T16:52:14;3.72;;;1.13;;
28296;SDS011;62078;49.366;8.172;2022-10-26T16:54:40;3.75;;;1.20;;
28296;SDS011;62078;49.366;8.172;2022-10-26T16:57:06;3.28;;;1.08;;
28296;SDS011;62078;49.366;8.172;2022-10-26T16:59:32;4.05;;;1.20;;
28296;SDS011;62078;49.366;8.172;2022-10-26T17:01:57;5.65;;;1.50;;
28296;SDS011;62078;49.366;8.172;2022-10-26T17:04:23;8.07;;;1.60;;
28296;SDS011;62078;49.366;8.172;2022-10-26T17:06:49;9.25;;;1.45;;
28296;SDS011;62078;49.366;8.172;2022-10-26T17:09:15;15.65;;;2.58;;
28296;SDS011;62078;49.366;8.172;2022-10-26T17:11:40;9.63;;;2.65;;
28296;SDS011;62078;49.366;8.172;2022-10-26T17:14:09;9.90;;;1.90;;
28296;SDS011;62078;49.366;8.172;2022-10-26T17:16:35;11.20;;;2.25;;
28296;SDS011;62078;49.366;8.172;2022-10-26T17:19:00;13.55;;;1.75;;
28296;SDS011;62078;49.366;8.172;2022-10-26T17:21:33;19.27;;;2.10;;
28296;SDS011;62078;49.366;8.172;2022-10-26T17:24:00;5.68;;;1.75;;
28296;SDS011;62078;49.366;8.172;2022-10-26T17:26:26;9.18;;;2.00;;
28296;SDS011;62078;49.366;8.172;2022-10-26T17:28:52;6.38;;;1.40;;
28296;SDS011;62078;49.366;8.172;2022-10-26T17:31:20;7.47;;;1.73;;
28296;SDS011;62078;49.366;8.172;2022-10-26T17:33:47;14.82;;;2.08;;
28296;SDS011;62078;49.366;8.172;2022-10-26T17:36:14;10.60;;;1.70;;
28296;SDS011;62078;49.366;8.172;2022-10-26T17:38:41;11.02;;;2.13;;
28296;SDS011;62078;49.366;8.172;2022-10-26T17:41:08;6.70;;;1.70;;
28296;SDS011;62078;49.366;8.172;2022-10-26T17:43:39;8.73;;;1.80;;
28296;SDS011;62078;49.366;8.172;2022-10-26T17:46:07;7.60;;;1.80;;
28296;SDS011;62078;49.366;8.172;2022-10-26T17:48:35;5.20;;;1.58;;
28296;SDS011;62078;49.366;8.172;2022-10-26T17:51:01;6.88;;;1.92;;
28296;SDS011;62078;49.366;8.172;2022-10-26T17:53:28;7.07;;;1.83;;
28296;SDS011;62078;49.366;8.172;2022-10-26T17:58:32;5.88;;;1.50;;
28296;SDS011;62078;49.366;8.172;2022-10-26T18:01:02;9.27;;;2.00;;
28296;SDS011;62078;49.366;8.172;2022-10-26T18:03:29;7.38;;;2.13;;
28296;SDS011;62078;49.366;8.172;2022-10-26T18:05:55;7.50;;;1.65;;
28296;SDS011;62078;49.366;8.172;2022-10-26T18:08:21;9.27;;;1.90;;
28296;SDS011;62078;49.366;8.172;2022-10-26T18:10:48;7.20;;;1.45;;
28296;SDS011;62078;49.366;8.172;2022-10-26T18:13:14;6.13;;;1.77;;
28296;SDS011;62078;49.366;8.172;2022-10-26T18:15:44;4.40;;;1.55;;
28296;SDS011;62078;49.366;8.172;2022-10-26T18:18:09;8.20;;;1.88;;
28296;SDS011;62078;49.366;8.172;2022-10-26T18:20:36;6.28;;;1.35;;
28296;SDS011;62078;49.366;8.172;2022-10-26T18:23:01;4.75;;;1.50;;
28296;SDS011;62078;49.366;8.172;2022-10-26T18:25:27;7.25;;;1.55;;
28296;SDS011;62078;49.366;8.172;2022-10-26T18:27:55;4.47;;;1.35;;
28296;SDS011;62078;49.366;8.172;2022-10-26T18:30:20;4.15;;;1.20;;
28296;SDS011;62078;49.366;8.172;2022-10-26T18:32:50;4.57;;;1.55;;
28296;SDS011;62078;49.366;8.172;2022-10-26T18:35:16;6.40;;;1.77;;
28296;SDS011;62078;49.366;8.172;2022-10-26T18:37:42;4.35;;;1.30;;
28296;SDS011;62078;49.366;8.172;2022-10-26T18:40:09;6.25;;;1.35;;
28296;SDS011;62078;49.366;8.172;2022-10-26T18:42:35;5.07;;;1.50;;
28296;SDS011;62078;49.366;8.172;2022-10-26T18:45:01;4.00;;;1.42;;
28296;SDS011;62078;49.366;8.172;2022-10-26T18:47:31;3.63;;;1.30;;
28296;SDS011;62078;49.366;8.172;2022-10-26T18:49:57;6.05;;;1.50;;
28296;SDS011;62078;49.366;8.172;2022-10-26T18:52:23;4.60;;;1.67;;
28296;SDS011;62078;49.366;8.172;2022-10-26T18:54:55;6.60;;;1.55;;
28296;SDS011;62078;49.366;8.172;2022-10-26T18:57:21;5.57;;;1.70;;
28296;SDS011;62078;49.366;8.172;2022-10-26T18:59:51;2.83;;;1.42;;
28296;SDS011;62078;49.366;8.172;2022-10-26T19:02:17;3.28;;;1.40;;
28296;SDS011;62078;49.366;8.172;2022-10-26T19:04:43;3.50;;;1.50;;
28296;SDS011;62078;49.366;8.172;2022-10-26T19:07:09;4.18;;;1.40;;
28296;SDS011;62078;49.366;8.172;2022-10-26T19:09:34;3.35;;;1.30;;
28296;SDS011;62078;49.366;8.172;2022-10-26T19:12:00;5.03;;;1.67;;
28296;SDS011;62078;49.366;8.172;2022-10-26T19:14:26;6.30;;;1.25;;
28296;SDS011;62078;49.366;8.172;2022-10-26T19:16:51;4.28;;;1.25;;
28296;SDS011;62078;49.366;8.172;2022-10-26T19:19:20;5.93;;;1.67;;
28296;SDS011;62078;49.366;8.172;2022-10-26T19:21:46;4.57;;;1.50;;
28296;SDS011;62078;49.366;8.172;2022-10-26T19:24:15;5.30;;;1.48;;
28296;SDS011;62078;49.366;8.172;2022-10-26T19:26:45;5.53;;;1.67;;
28296;SDS011;62078;49.366;8.172;2022-10-26T19:29:12;4.50;;;1.23;;
28296;SDS011;62078;49.366;8.172;2022-10-26T19:31:39;6.55;;;1.40;;
28296;SDS011;62078;49.366;8.172;2022-10-26T19:34:06;3.60;;;1.13;;
28296;SDS011;62078;49.366;8.172;2022-10-26T19:36:34;3.08;;;1.25;;
28296;SDS011;62078;49.366;8.172;2022-10-26T19:38:59;3.88;;;1.67;;
28296;SDS011;62078;49.366;8.172;2022-10-26T19:41:25;3.42;;;1.10;;
28296;SDS011;62078;49.366;8.172;2022-10-26T19:43:54;6.55;;;1.55;;
28296;SDS011;62078;49.366;8.172;2022-10-26T19:46:22;4.70;;;1.17;;
28296;SDS011;62078;49.366;8.172;2022-10-26T19:48:53;3.58;;;1.45;;
28296;SDS011;62078;49.366;8.172;2022-10-26T19:51:23;7.07;;;1.40;;
28296;SDS011;62078;49.366;8.172;2022-10-26T19:53:50;3.80;;;1.45;;
28296;SDS011;62078;49.366;8.172;2022-10-26T19:56:15;6.13;;;1.75;;
28296;SDS011;62078;49.366;8.172;2022-10-26T19:58:42;5.05;;;1.30;;
28296;SDS011;62078;49.366;8.172;2022-10-26T20:01:09;3.63;;;1.45;;
28296;SDS011;62078;49.366;8.172;2022-10-26T20:03:37;3.83;;;1.20;;
28296;SDS011;62078;49.366;8.172;2022-10-26T20:06:03;2.88;;;1.33;;
28296;SDS011;62078;49.366;8.172;2022-10-26T20:08:32;4.32;;;1.42;;
28296;SDS011;62078;49.366;8.172;2022-10-26T20:11:03;3.13;;;1.17;;
28296;SDS011;62078;49.366;8.172;2022-10-26T20:13:32;5.15;;;1.60;;
28296;SDS011;62078;49.366;8.172;2022-10-26T20:15:57;3.80;;;1.55;;
28296;SDS011;62078;49.366;8.172;2022-10-26T20:18:23;4.57;;;1.20;;
28296;SDS011;62078;49.366;8.172;2022-10-26T20:20:49;8.18;;;1.45;;
28296;SDS011;62078;49.366;8.172;2022-10-26T20:23:15;3.70;;;1.55;;
28296;SDS011;62078;49.366;8.172;2022-10-26T20:25:44;7.85;;;2.10;;
28296;SDS011;62078;49.366;8.172;2022-10-26T20:28:12;6.53;;;1.55;;
28296;SDS011;62078;49.366;8.172;2022-10-26T20:30:38;6.70;;;1.67;;
28296;SDS011;62078;49.366;8.172;2022-10-26T20:33:06;6.05;;;1.88;;
28296;SDS011;62078;49.366;8.172;2022-10-26T20:35:33;4.82;;;1.45;;
28296;SDS011;62078;49.366;8.172;2022-10-26T20:37:59;5.53;;;1.90;;
28296;SDS011;62078;49.366;8.172;2022-10-26T20:40:25;7.28;;;1.73;;
28296;SDS011;62078;49.366;8.172;2022-10-26T20:42:52;15.43;;;1.90;;
28296;SDS011;62078;49.366;8.172;2022-10-26T20:45:28;14.90;;;2.15;;
28296;SDS011;62078;49.366;8.172;2022-10-26T20:47:55;5.90;;;1.75;;
28296;SDS011;62078;49.366;8.172;2022-10-26T20:50:22;8.25;;;2.17;;
28296;SDS011;62078;49.366;8.172;2022-10-26T21:01:29;9.35;;;1.45;;
28296;SDS011;62078;49.366;8.172;2022-10-26T21:03:58;8.23;;;1.92;;
28296;SDS011;62078;49.366;8.172;2022-10-26T21:06:25;3.92;;;1.50;;
28296;SDS011;62078;49.366;8.172;2022-10-26T21:08:52;13.85;;;1.90;;
28296;SDS011;62078;49.366;8.172;2022-10-26T21:11:19;5.15;;;1.40;;
28296;SDS011;62078;49.366;8.172;2022-10-26T21:13:47;6.55;;;1.58;;
28296;SDS011;62078;49.366;8.172;2022-10-26T21:16:13;9.25;;;2.35;;
28296;SDS011;62078;49.366;8.172;2022-10-26T21:18:39;6.93;;;2.00;;
28296;SDS011;62078;49.366;8.172;2022-10-26T21:21:05;6.32;;;1.63;;
28296;SDS011;62078;49.366;8.172;2022-10-26T21:23:35;6.53;;;1.70;;
28296;SDS011;62078;49.366;8.172;2022-10-26T21:26:02;5.05;;;1.80;;
28296;SDS011;62078;49.366;8.172;2022-10-26T21:28:32;6.40;;;1.70;;
28296;SDS011;62078;49.366;8.172;2022-10-26T21:31:02;6.15;;;1.95;;
28296;SDS011;62078;49.366;8.172;2022-10-26T21:33:29;6.15;;;1.73;;
28296;SDS011;62078;49.366;8.172;2022-10-26T21:35:58;8.82;;;1.30;;
28296;SDS011;62078;49.366;8.172;2022-10-26T21:38:28;3.38;;;1.42;;
28296;SDS011;62078;49.366;8.172;2022-10-26T21:43:49;4.32;;;1.65;;
28296;SDS011;62078;49.366;8.172;2022-10-26T21:46:16;4.78;;;1.35;;
28296;SDS011;62078;49.366;8.172;2022-10-26T21:48:43;6.10;;;1.45;;
28296;SDS011;62078;49.366;8.172;2022-10-26T21:51:16;7.15;;;1.73;;
28296;SDS011;62078;49.366;8.172;2022-10-26T21:53:44;4.63;;;1.60;;
28296;SDS011;62078;49.366;8.172;2022-10-26T21:56:19;5.28;;;1.58;;
28296;SDS011;62078;49.366;8.172;2022-10-26T21:58:45;5.95;;;1.52;;
28296;SDS011;62078;49.366;8.172;2022-10-26T22:01:21;5.00;;;1.80;;
28296;SDS011;62078;49.366;8.172;2022-10-26T22:03:47;4.60;;;1.60;;
28296;SDS011;62078;49.366;8.172;2022-10-26T22:06:14;5.50;;;1.58;;
28296;SDS011;62078;49.366;8.172;2022-10-26T22:08:42;3.40;;;1.30;;
28296;SDS011;62078;49.366;8.172;2022-10-26T22:11:09;3.85;;;1.35;;
28296;SDS011;62078;49.366;8.172;2022-10-26T22:13:43;4.55;;;1.60;;
28296;SDS011;62078;49.366;8.172;2022-10-26T22:16:10;3.38;;;1.40;;
28296;SDS011;62078;49.366;8.172;2022-10-26T22:18:38;6.80;;;1.50;;
28296;SDS011;62078;49.366;8.172;2022-10-26T22:21:06;6.15;;;1.60;;
28296;SDS011;62078;49.366;8.172;2022-10-26T22:23:33;5.13;;;1.70;;
28296;SDS011;62078;49.366;8.172;2022-10-26T22:26:03;5.03;;;1.60;;
28296;SDS011;62078;49.366;8.172;2022-10-26T22:28:34;5.90;;;1.58;;
28296;SDS011;62078;49.366;8.172;2022-10-26T22:31:05;4.13;;;1.67;;
28296;SDS011;62078;49.366;8.172;2022-10-26T22:33:32;5.80;;;1.40;;
28296;SDS011;62078;49.366;8.172;2022-10-26T22:36:08;5.20;;;1.60;;
28296;SDS011;62078;49.366;8.172;2022-10-26T22:38:38;3.58;;;1.55;;
28296;SDS011;62078;49.366;8.172;2022-10-26T22:41:05;4.07;;;1.52;;
28296;SDS011;62078;49.366;8.172;2022-10-26T22:43:31;5.57;;;1.65;;
28296;SDS011;62078;49.366;8.172;2022-10-26T22:45:57;3.75;;;1.40;;
28296;SDS011;62078;49.366;8.172;2022-10-26T22:48:23;3.30;;;1.30;;
28296;SDS011;62078;49.366;8.172;2022-10-26T22:50:49;4.88;;;1.52;;
28296;SDS011;62078;49.366;8.172;2022-10-26T22:53:14;6.10;;;1.80;;
28296;SDS011;62078;49.366;8.172;2022-10-26T22:55:40;4.80;;;1.33;;
28296;SDS011;62078;49.366;8.172;2022-10-26T22:58:06;3.75;;;1.25;;
28296;SDS011;62078;49.366;8.172;2022-10-26T23:00:32;3.13;;;1.10;;
28296;SDS011;62078;49.366;8.172;2022-10-26T23:02:57;4.72;;;1.63;;
28296;SDS011;62078;49.366;8.172;2022-10-26T23:05:23;5.10;;;1.77;;
28296;SDS011;62078;49.366;8.172;2022-10-26T23:07:48;6.55;;;1.50;;
28296;SDS011;62078;49.366;8.172;2022-10-26T23:10:14;2.75;;;1.30;;
28296;SDS011;62078;49.366;8.172;2022-10-26T23:12:40;6.22;;;1.70;;
28296;SDS011;62078;49.366;8.172;2022-10-26T23:15:05;3.03;;;1.30;;
28296;SDS011;62078;49.366;8.172;2022-10-26T23:17:31;4.03;;;1.48;;
28296;SDS011;62078;49.366;8.172;2022-10-26T23:19:57;2.67;;;1.20;;
28296;SDS011;62078;49.366;8.172;2022-10-26T23:22:23;3.70;;;1.25;;
28296;SDS011;62078;49.366;8.172;2022-10-26T23:24:48;4.28;;;1.60;;
28296;SDS011;62078;49.366;8.172;2022-10-26T23:27:14;3.50;;;1.50;;
28296;SDS011;62078;49.366;8.172;2022-10-26T23:29:40;4.03;;;1.70;;
28296;SDS011;62078;49.366;8.172;2022-10-26T23:32:05;3.25;;;1.10;;
28296;SDS011;62078;49.366;8.172;2022-10-26T23:34:31;4.75;;;1.55;;
28296;SDS011;62078;49.366;8.172;2022-10-26T23:36:56;4.38;;;1.48;;
28296;SDS011;62078;49.366;8.172;2022-10-26T23:39:22;3.70;;;1.45;;
28296;SDS011;62078;49.366;8.172;2022-10-26T23:41:48;4.25;;;1.55;;
28296;SDS011;62078;49.366;8.172;2022-10-26T23:44:13;3.33;;;1.42;;
28296;SDS011;62078;49.366;8.172;2022-10-26T23:46:39;5.30;;;1.40;;
28296;SDS011;62078;49.366;8.172;2022-10-26T23:49:05;3.65;;;1.40;;
28296;SDS011;62078;49.366;8.172;2022-10-26T23:51:30;3.50;;;1.13;;
28296;SDS011;62078;49.366;8.172;2022-10-26T23:53:56;3.03;;;1.30;;
28296;SDS011;62078;49.366;8.172;2022-10-26T23:56:22;5.05;;;1.70;;
28296;SDS011;62078;49.366;8.172;2022-10-26T23:58:50;3.42;;;1.58;;
